Time;durP1;ratioP1;P1;durP2;ratioP2;P2;SDS_P1;SDS_P2;PMS_P1;PMS_P2;Temp;Humidity;BMP_temperature;BMP_pressure;BME280_temperature;BME280_humidity;BME280_pressure;Samples;Min_cycle;Max_cycle;Signal;HPM_P1;HPM_P2
2022/01/26 00:06:41;;;;;;;32.50;11.75;;;;;;;-7.88;52.97;96276.03;5083532;28;20034;-76
2022/01/26 00:09:07;;;;;;;29.27;10.25;;;;;;;-7.96;52.60;96272.78;5073344;28;20027;-76
2022/01/26 00:11:34;;;;;;;28.65;12.40;;;;;;;-8.02;53.35;96272.94;5108595;27;20036;-77
2022/01/26 00:14:01;;;;;;;23.90;11.32;;;;;;;-8.01;53.61;96265.09;5088917;28;20023;-77
2022/01/26 00:16:34;;;;;;;28.27;12.45;;;;;;;-8.16;53.86;96266.38;5090983;28;20028;-78
2022/01/26 00:19:01;;;;;;;24.50;11.40;;;;;;;-8.17;54.76;96261.22;5106863;28;20050;-77
2022/01/26 00:29:12;;;;;;;36.15;14.13;;;;;;;-8.53;55.52;96272.56;5106975;28;20055;-77
2022/01/26 00:39:58;;;;;;;45.33;19.08;;;;;;;-8.99;56.66;96270.22;5092888;28;20108;-78
2022/01/26 00:42:26;;;;;;;44.60;20.40;;;;;;;-9.03;56.83;96269.47;5106994;28;20498;-77
2022/01/26 00:44:51;;;;;;;50.15;17.85;;;;;;;-9.03;56.97;96273.78;5106453;28;20032;-77
2022/01/26 00:47:17;;;;;;;49.00;18.20;;;;;;;-9.10;57.87;96271.34;5089555;28;20117;-79
2022/01/26 00:49:42;;;;;;;46.72;18.88;;;;;;;-8.98;57.36;96274.53;5106390;28;20030;-78
2022/01/26 00:52:12;;;;;;;39.33;18.10;;;;;;;-8.95;57.31;96275.34;5107950;28;20023;-78
2022/01/26 00:54:38;;;;;;;41.70;19.58;;;;;;;-8.95;57.77;96269.28;5107100;28;20020;-78
2022/01/26 00:57:03;;;;;;;42.92;18.98;;;;;;;-9.00;58.15;96268.50;5107344;28;20023;-77
2022/01/26 00:59:30;;;;;;;50.33;20.55;;;;;;;-9.03;58.30;96259.06;5106884;28;20122;-78
2022/01/26 01:01:56;;;;;;;51.60;19.90;;;;;;;-9.02;58.04;96263.34;5106139;28;20474;-78
2022/01/26 01:04:22;;;;;;;40.80;18.13;;;;;;;-8.96;58.29;96263.22;5108011;28;20023;-77
2022/01/26 01:06:53;;;;;;;34.58;16.80;;;;;;;-8.96;57.79;96254.53;5105998;28;20019;-78
2022/01/26 01:09:21;;;;;;;40.65;18.17;;;;;;;-9.00;58.36;96250.31;5106842;28;20165;-78
2022/01/26 01:11:46;;;;;;;43.08;18.98;;;;;;;-9.06;58.33;96246.97;5106389;28;20080;-76
2022/01/26 01:14:11;;;;;;;45.50;19.17;;;;;;;-9.05;59.23;96255.63;5107579;28;20024;-77
2022/01/26 01:16:37;;;;;;;45.80;18.48;;;;;;;-9.01;58.92;96251.22;5107635;28;20092;-79
2022/01/26 01:19:12;;;;;;;47.67;19.88;;;;;;;-9.03;58.55;96255.59;5105800;28;20027;-78
2022/01/26 01:22:20;;;;;;;45.08;19.05;;;;;;;-9.12;58.93;96259.25;5091244;28;20027;-77
2022/01/26 01:30:21;;;;;;;47.45;19.27;;;;;;;-9.06;58.96;96246.97;5106680;28;20120;-77
2022/01/26 01:33:22;;;;;;;47.50;19.40;;;;;;;-9.06;59.62;96249.56;5106901;28;20032;-77
2022/01/26 01:35:39;;;;;;;51.03;19.85;;;;;;;-8.99;59.25;96245.09;5104860;28;20326;-77
2022/01/26 01:38:13;;;;;;;59.20;24.80;;;;;;;-8.91;59.05;96238.84;5108191;28;20112;-78
2022/01/26 01:40:40;;;;;;;54.72;23.50;;;;;;;-8.97;58.19;96226.84;5105581;28;20494;-78
2022/01/26 01:43:06;;;;;;;42.83;20.98;;;;;;;-8.87;58.24;96233.53;5088848;28;20390;-77
2022/01/26 01:45:51;;;;;;;44.72;19.73;;;;;;;-8.95;58.63;96235.47;5088534;28;20517;-76
2022/01/26 01:48:20;;;;;;;50.78;20.20;;;;;;;-9.04;59.80;96233.94;5106246;28;20044;-79
2022/01/26 01:50:47;;;;;;;39.35;19.05;;;;;;;-8.91;59.06;96234.50;5088676;28;20500;-78
2022/01/26 01:53:15;;;;;;;46.20;17.23;;;;;;;-8.96;59.42;96226.81;5105673;28;20028;-77
2022/01/26 01:55:48;;;;;;;50.05;19.38;;;;;;;-8.97;59.79;96229.44;5105980;28;20549;-77
2022/01/26 01:58:13;;;;;;;43.28;16.75;;;;;;;-8.98;59.97;96225.97;5089390;28;20437;-77
2022/01/26 02:00:39;;;;;;;34.05;15.88;;;;;;;-8.89;59.71;96217.13;5105763;28;20023;-77
2022/01/26 02:03:04;;;;;;;33.67;15.15;;;;;;;-8.89;59.92;96214.50;5105261;28;20406;-77
2022/01/26 02:05:29;;;;;;;31.08;13.55;;;;;;;-8.87;60.00;96215.34;5089050;28;20028;-78
2022/01/26 02:07:55;;;;;;;30.65;13.35;;;;;;;-8.86;59.56;96209.22;5105138;28;20549;-77
2022/01/26 02:10:23;;;;;;;32.60;14.88;;;;;;;-8.78;59.55;96221.16;5089279;28;20498;-78
2022/01/26 02:12:52;;;;;;;33.78;15.65;;;;;;;-8.72;59.56;96215.84;5088840;28;20085;-77
2022/01/26 02:15:23;;;;;;;36.08;16.13;;;;;;;-8.62;59.71;96213.81;5088766;28;20024;-77
2022/01/26 02:55:49;;;;;;;31.38;14.00;;;;;;;-8.63;58.59;96194.78;5109214;28;20085;-77
2022/01/26 03:03:33;;;;;;;39.42;16.38;;;;;;;-8.89;61.00;96204.13;5110005;28;20031;-77
2022/01/26 03:06:23;;;;;;;39.97;16.85;;;;;;;-8.89;60.79;96193.72;5109234;28;20028;-81
2022/01/26 03:08:54;;;;;;;34.53;14.13;;;;;;;-8.78;60.56;96206.44;5108123;28;20039;-77
2022/01/26 03:11:32;;;;;;;29.70;12.10;;;;;;;-8.74;59.20;96197.69;5108190;28;20024;-78
2022/01/26 03:14:07;;;;;;;25.42;12.50;;;;;;;-8.72;59.94;96193.25;5108147;28;20035;-77
2022/01/26 03:16:42;;;;;;;27.73;12.23;;;;;;;-8.65;59.80;96186.16;5108408;28;20020;-77
2022/01/26 03:19:25;;;;;;;22.88;11.10;;;;;;;-8.62;59.65;96190.41;5108895;28;20081;-77
2022/01/26 03:30:04;;;;;;;24.30;12.95;;;;;;;-8.66;60.90;96194.88;5110138;28;20039;-77
2022/01/26 03:34:57;;;;;;;31.48;14.77;;;;;;;-8.64;61.30;96187.03;5109649;28;20035;-77
2022/01/26 03:37:28;;;;;;;28.13;13.80;;;;;;;-8.57;61.96;96189.41;5108512;28;20032;-77
2022/01/26 03:39:54;;;;;;;28.50;14.90;;;;;;;-8.50;61.16;96186.63;5108808;28;20485;-77
2022/01/26 03:42:19;;;;;;;34.47;15.13;;;;;;;-8.44;61.12;96183.84;5107708;28;20019;-77
2022/01/26 03:44:45;;;;;;;36.45;16.00;;;;;;;-8.37;60.78;96189.75;5108842;28;20038;-79
2022/01/26 03:47:10;;;;;;;32.20;15.27;;;;;;;-8.28;60.85;96183.41;5089235;28;20044;-76
2022/01/26 03:49:36;;;;;;;31.08;14.75;;;;;;;-8.26;60.76;96173.81;5091638;28;20084;-75
2022/01/26 03:52:05;;;;;;;33.53;16.10;;;;;;;-8.46;61.84;96180.41;5107382;28;20100;-77
2022/01/26 03:54:30;;;;;;;33.33;15.15;;;;;;;-8.36;61.32;96173.22;5108572;28;20093;-77
2022/01/26 03:56:56;;;;;;;31.85;14.30;;;;;;;-8.30;61.07;96170.44;5107528;28;20024;-77
2022/01/26 03:59:21;;;;;;;27.27;13.93;;;;;;;-8.31;61.03;96180.00;5107640;28;20489;-80
2022/01/26 04:01:47;;;;;;;33.65;15.05;;;;;;;-8.24;61.11;96172.03;5107935;28;20031;-77
2022/01/26 04:04:12;;;;;;;27.05;13.07;;;;;;;-8.15;61.27;96176.09;5107110;28;20425;-79
2022/01/26 04:06:38;;;;;;;34.22;15.63;;;;;;;-8.12;60.83;96173.41;5107343;28;20490;-79
2022/01/26 04:09:06;;;;;;;29.67;14.32;;;;;;;-8.09;60.60;96165.50;5090008;28;20084;-77
2022/01/26 04:14:00;;;;;;;28.63;14.40;;;;;;;-8.02;61.23;96161.00;5107328;28;20042;-77
2022/01/26 04:16:26;;;;;;;31.42;16.27;;;;;;;-7.95;60.88;96165.13;5107391;28;20237;-78
2022/01/26 04:18:53;;;;;;;37.03;14.68;;;;;;;-7.93;60.80;96160.72;5107842;28;20535;-76
2022/01/26 04:26:29;;;;;;;28.30;13.27;;;;;;;-7.77;61.41;96160.28;5107154;28;20430;-78
2022/01/26 04:29:08;;;;;;;32.15;14.43;;;;;;;-7.71;61.75;96160.94;5091902;28;20032;-77
2022/01/26 04:31:34;;;;;;;27.25;13.05;;;;;;;-7.70;62.01;96144.41;5107215;28;20055;-78
2022/01/26 04:33:59;;;;;;;27.83;13.27;;;;;;;-7.61;62.25;96151.06;5107137;28;20023;-78
2022/01/26 04:36:31;;;;;;;30.05;13.18;;;;;;;-7.61;61.85;96152.84;5106634;28;20406;-77
2022/01/26 04:39:01;;;;;;;31.37;14.27;;;;;;;-7.55;61.50;96157.84;5106255;28;20032;-77
2022/01/26 04:41:33;;;;;;;33.08;13.45;;;;;;;-7.47;61.29;96160.22;5107173;28;20357;-76
2022/01/26 04:44:06;;;;;;;31.02;15.20;;;;;;;-7.43;61.58;96148.78;5108105;28;20020;-77
2022/01/26 04:46:31;;;;;;;30.85;14.50;;;;;;;-7.42;61.01;96158.31;5107496;28;20031;-76
2022/01/26 04:48:57;;;;;;;33.67;14.13;;;;;;;-7.40;60.92;96143.50;5107031;28;20024;-79
2022/01/26 04:51:22;;;;;;;33.13;15.77;;;;;;;-7.39;61.40;96144.31;5106555;28;20023;-77
2022/01/26 04:53:48;;;;;;;33.10;14.05;;;;;;;-7.27;61.39;96136.09;5107002;28;20085;-78
2022/01/26 04:56:14;;;;;;;28.80;13.20;;;;;;;-7.29;61.80;96143.16;5089495;28;20520;-77
2022/01/26 04:58:40;;;;;;;29.20;13.45;;;;;;;-7.21;61.71;96145.50;5106879;28;20042;-79
2022/01/26 05:01:06;;;;;;;31.58;14.63;;;;;;;-7.13;61.67;96148.72;5089306;28;20057;-78
2022/01/26 05:03:31;;;;;;;30.45;14.45;;;;;;;-7.11;62.04;96146.88;5107010;28;20024;-78
2022/01/26 05:05:57;;;;;;;31.35;13.85;;;;;;;-7.01;61.80;96151.81;5107117;28;20028;-78
2022/01/26 05:08:23;;;;;;;31.40;14.60;;;;;;;-7.03;61.69;96149.25;5107706;28;20035;-78
2022/01/26 05:10:49;;;;;;;29.00;13.50;;;;;;;-6.93;61.73;96156.78;5089415;28;20027;-77
2022/01/26 05:13:15;;;;;;;29.67;14.38;;;;;;;-6.88;60.58;96153.09;5107612;28;20085;-78
2022/01/26 05:15:42;;;;;;;28.90;13.80;;;;;;;-6.98;60.69;96162.16;5106646;28;20077;-79
2022/01/26 05:18:08;;;;;;;34.08;15.65;;;;;;;-6.99;60.72;96160.41;5091443;28;20024;-76
2022/01/26 05:20:34;;;;;;;34.22;15.15;;;;;;;-6.98;61.13;96154.31;5094458;28;20016;-76
2022/01/26 05:23:00;;;;;;;31.23;13.95;;;;;;;-6.96;61.45;96149.88;5093314;28;20074;-79
2022/01/26 05:25:25;;;;;;;30.08;14.13;;;;;;;-6.97;61.73;96148.19;5094132;28;20031;-77
2022/01/26 05:27:51;;;;;;;38.60;18.33;;;;;;;-6.89;62.13;96148.78;5106418;28;20055;-78
2022/01/26 05:30:16;;;;;;;34.22;14.52;;;;;;;-6.88;61.73;96142.66;5107967;28;20035;-80
2022/01/26 05:32:42;;;;;;;32.90;15.05;;;;;;;-6.92;61.68;96148.88;5106395;28;20039;-78
2022/01/26 05:35:08;;;;;;;30.63;15.35;;;;;;;-6.73;61.96;96135.19;5105663;28;20034;-78
2022/01/26 05:37:33;;;;;;;26.60;11.98;;;;;;;-6.58;60.79;96134.66;5105850;28;20020;-78
2022/01/26 05:39:59;;;;;;;23.23;10.48;;;;;;;-6.38;60.23;96135.72;5088421;28;20607;-78
2022/01/26 05:42:25;;;;;;;19.30;10.10;;;;;;;-6.26;59.42;96130.94;5105999;28;20406;-77
2022/01/26 05:44:51;;;;;;;21.33;10.13;;;;;;;-6.06;59.27;96134.59;5104969;28;20020;-78
2022/01/26 05:47:19;;;;;;;23.48;10.10;;;;;;;-5.93;58.60;96130.56;5106303;28;20039;-78
2022/01/26 05:49:45;;;;;;;22.70;10.57;;;;;;;-5.84;58.19;96140.69;5105647;28;20606;-78
2022/01/26 05:52:10;;;;;;;25.48;9.82;;;;;;;-5.76;58.39;96129.94;5106178;28;20019;-81
2022/01/26 05:54:36;;;;;;;18.27;10.43;;;;;;;-5.71;58.13;96142.81;5106240;28;20100;-77
2022/01/26 05:57:02;;;;;;;23.08;9.50;;;;;;;-5.54;57.38;96136.06;5104956;28;20482;-77
2022/01/26 05:59:27;;;;;;;24.75;10.60;;;;;;;-5.46;56.93;96132.25;5107486;28;20058;-78
2022/01/26 06:01:53;;;;;;;23.23;10.38;;;;;;;-5.43;57.08;96123.41;5106292;28;20383;-77
2022/01/26 06:04:18;;;;;;;22.60;10.65;;;;;;;-5.36;57.10;96119.66;5107187;28;20043;-80
2022/01/26 06:06:44;;;;;;;17.85;9.40;;;;;;;-5.27;56.68;96128.88;5104803;28;20020;-76
2022/01/26 06:09:09;;;;;;;19.75;9.73;;;;;;;-5.20;56.43;96126.88;5088653;28;20481;-77
2022/01/26 06:11:35;;;;;;;28.23;12.00;;;;;;;-5.19;56.46;96130.34;5073902;28;20038;-79
2022/01/26 06:14:01;;;;;;;23.05;10.63;;;;;;;-5.20;56.70;96132.09;5108846;28;20024;-77
2022/01/26 06:16:26;;;;;;;28.67;11.30;;;;;;;-5.12;56.41;96131.78;5109626;28;20112;-79
2022/01/26 06:18:52;;;;;;;19.92;10.32;;;;;;;-5.06;55.91;96130.69;5108887;28;20020;-78
2022/01/26 06:21:17;;;;;;;26.60;12.75;;;;;;;-5.05;56.61;96127.16;5111230;28;20023;-78
2022/01/26 06:23:43;;;;;;;25.33;10.80;;;;;;;-5.09;56.46;96137.75;5109189;28;20027;-77
2022/01/26 06:26:08;;;;;;;29.00;11.15;;;;;;;-5.20;56.96;96124.25;5109570;28;20031;-78
2022/01/26 06:28:34;;;;;;;24.02;10.05;;;;;;;-5.21;57.52;96125.19;5108678;28;20024;-78
2022/01/26 06:31:09;;;;;;;24.13;11.77;;;;;;;-5.26;57.73;96129.75;5108843;28;20096;-77
2022/01/26 06:33:35;;;;;;;19.75;10.38;;;;;;;-5.17;57.79;96125.88;5109427;28;20111;-77
2022/01/26 06:36:01;;;;;;;22.23;10.38;;;;;;;-5.15;57.92;96124.94;5108176;28;20051;-77
2022/01/26 06:38:28;;;;;;;18.42;10.23;;;;;;;-5.10;58.85;96122.97;5092375;28;20030;-78
2022/01/26 06:40:54;;;;;;;31.10;15.43;;;;;;;-5.04;58.49;96123.63;5091304;28;20478;-78
2022/01/26 06:43:22;;;;;;;21.58;11.32;;;;;;;-4.80;58.07;96121.72;5092435;28;20053;-78
2022/01/26 06:45:51;;;;;;;21.90;11.10;;;;;;;-4.77;58.25;96120.78;5108748;28;20024;-78
2022/01/26 06:51:00;;;;;;;25.15;10.23;;;;;;;-4.62;57.88;96129.72;5094533;28;20442;-78
2022/01/26 06:53:26;;;;;;;22.88;11.50;;;;;;;-4.63;57.87;96128.88;5108396;28;20027;-76
2022/01/26 06:55:52;;;;;;;26.50;10.80;;;;;;;-4.50;58.06;96139.66;5109242;28;20035;-79
2022/01/26 06:58:17;;;;;;;23.20;11.38;;;;;;;-4.42;57.52;96141.97;5109182;28;20076;-78
2022/01/26 07:00:43;;;;;;;22.77;10.60;;;;;;;-4.43;58.25;96132.38;5110674;28;20031;-78
2022/01/26 07:03:08;;;;;;;19.48;10.40;;;;;;;-4.31;57.91;96130.16;5109328;28;20019;-78
2022/01/26 07:05:34;;;;;;;24.90;10.50;;;;;;;-4.26;58.10;96129.03;5108724;28;20520;-77
2022/01/26 07:07:59;;;;;;;23.65;10.73;;;;;;;-4.36;58.25;96136.44;5108557;28;20031;-78
2022/01/26 07:10:25;;;;;;;26.20;11.38;;;;;;;-4.28;58.36;96132.63;5108148;28;20027;-78
2022/01/26 07:12:50;;;;;;;22.35;11.55;;;;;;;-4.22;58.31;96132.34;5108706;28;20023;-78
2022/01/26 07:23:20;;;;;;;20.00;9.90;;;;;;;-4.17;58.47;96122.53;5107407;28;20032;-78
2022/01/26 07:25:45;;;;;;;24.55;10.13;;;;;;;-4.08;58.16;96126.50;5110313;28;20035;-78
2022/01/26 07:28:11;;;;;;;28.02;11.23;;;;;;;-4.12;58.31;96123.16;5090648;28;20463;-78
2022/01/26 07:30:37;;;;;;;21.00;11.23;;;;;;;-4.16;58.23;96131.25;5110413;28;20026;-78
2022/01/26 07:33:03;;;;;;;24.75;10.57;;;;;;;-4.06;58.26;96126.44;5109024;28;20043;-79
2022/01/26 07:35:29;;;;;;;28.77;11.25;;;;;;;-4.07;58.23;96130.81;5108717;28;20039;-77
2022/01/26 07:37:58;;;;;;;23.67;11.50;;;;;;;-4.03;58.59;96136.78;5109704;28;20436;-78
2022/01/26 07:40:23;;;;;;;24.33;11.48;;;;;;;-4.04;58.23;96135.91;5109459;28;20458;-78
2022/01/26 07:42:48;;;;;;;23.70;10.38;;;;;;;-3.98;58.15;96135.63;5118315;28;20539;-76
2022/01/26 07:45:14;;;;;;;22.40;11.45;;;;;;;-3.91;58.27;96140.59;5117916;28;20031;-76
2022/01/26 07:47:39;;;;;;;22.60;10.80;;;;;;;-3.94;58.40;96146.84;5101842;28;20035;-77
2022/01/26 07:50:08;;;;;;;22.13;9.82;;;;;;;-3.85;58.28;96140.31;5100838;28;20149;-77
2022/01/26 07:52:38;;;;;;;21.10;11.00;;;;;;;-3.82;58.27;96131.47;5118919;28;20524;-77
2022/01/26 07:55:04;;;;;;;21.05;9.85;;;;;;;-3.81;58.81;96136.66;5100110;28;20058;-77
2022/01/26 07:57:30;;;;;;;22.45;10.73;;;;;;;-3.88;59.55;96146.56;5107728;28;20405;-78
2022/01/26 07:59:55;;;;;;;23.27;10.50;;;;;;;-3.91;60.33;96138.84;5109043;28;20032;-76
2022/01/26 08:02:21;;;;;;;27.55;10.23;;;;;;;-4.05;60.45;96139.47;5108175;28;20498;-77
2022/01/26 08:04:47;;;;;;;21.02;10.23;;;;;;;-3.92;60.72;96146.78;5107802;28;20494;-79
2022/01/26 08:07:12;;;;;;;19.40;10.27;;;;;;;-3.83;60.08;96135.00;5106200;28;20028;-78
2022/01/26 08:09:43;;;;;;;22.27;9.73;;;;;;;-3.78;60.34;96143.50;5090893;28;20526;-77
2022/01/26 08:12:09;;;;;;;21.50;9.27;;;;;;;-3.71;60.60;96142.31;5090972;28;20312;-78
2022/01/26 08:14:35;;;;;;;22.05;10.23;;;;;;;-3.76;61.09;96137.28;5090599;28;20042;-77
2022/01/26 08:17:01;;;;;;;19.65;9.98;;;;;;;-3.69;60.10;96140.44;5107410;28;20024;-78
2022/01/26 08:19:27;;;;;;;22.77;10.90;;;;;;;-3.85;61.62;96146.41;5106573;28;20023;-79
2022/01/26 08:21:58;;;;;;;29.95;12.00;;;;;;;-3.67;61.27;96143.84;5107037;28;20513;-76
2022/01/26 08:24:24;;;;;;;24.20;10.13;;;;;;;-3.53;60.38;96135.34;5106735;28;20080;-76
2022/01/26 08:26:50;;;;;;;23.10;11.13;;;;;;;-3.47;60.50;96140.28;5107612;28;20477;-80
2022/01/26 08:29:25;;;;;;;19.35;9.77;;;;;;;-3.38;60.46;96136.38;5106780;28;20114;-78
2022/01/26 08:31:50;;;;;;;24.25;11.00;;;;;;;-3.38;60.36;96139.00;5091747;28;20070;-76
2022/01/26 08:34:17;;;;;;;23.13;10.75;;;;;;;-3.39;60.89;96139.09;5106510;28;20023;-79
2022/01/26 08:36:42;;;;;;;22.92;11.27;;;;;;;-3.29;60.99;96142.94;5106446;28;20034;-78
2022/01/26 08:39:08;;;;;;;25.02;11.32;;;;;;;-3.26;61.20;96139.34;5107139;28;20023;-79
2022/01/26 08:41:34;;;;;;;25.52;11.95;;;;;;;-3.34;61.45;96137.09;5106304;28;20162;-78
2022/01/26 08:43:59;;;;;;;24.48;12.07;;;;;;;-3.16;60.88;96153.72;5090869;28;20058;-83
2022/01/26 08:46:24;;;;;;;26.80;11.75;;;;;;;-3.13;60.87;96147.47;5106170;28;20020;-79
2022/01/26 08:48:50;;;;;;;20.17;9.75;;;;;;;-3.00;60.70;96147.72;5107067;28;20066;-81
2022/01/26 08:51:17;;;;;;;23.30;10.65;;;;;;;-3.08;60.62;96149.88;5089343;28;20035;-81
2022/01/26 08:53:42;;;;;;;21.30;10.82;;;;;;;-3.04;60.67;96143.53;5106538;28;20028;-78
2022/01/26 08:56:07;;;;;;;24.38;11.80;;;;;;;-2.97;60.82;96142.31;5106867;28;20035;-78
2022/01/26 08:58:33;;;;;;;20.88;11.13;;;;;;;-2.86;60.88;96141.78;5106973;28;20104;-76
2022/01/26 09:00:59;;;;;;;18.95;10.27;;;;;;;-2.77;60.51;96149.19;5106573;28;20456;-79
2022/01/26 09:03:24;;;;;;;22.85;11.20;;;;;;;-2.73;60.94;96144.66;5089634;28;20513;-78
2022/01/26 09:05:50;;;;;;;18.83;10.25;;;;;;;-2.79;60.97;96137.09;5108500;28;20096;-78
2022/01/26 09:08:17;;;;;;;19.65;9.82;;;;;;;-2.74;61.51;96146.41;5107041;28;20080;-77
2022/01/26 09:10:42;;;;;;;20.35;10.55;;;;;;;-2.81;61.82;96154.69;5106445;28;20544;-78
2022/01/26 09:13:08;;;;;;;18.52;9.90;;;;;;;-2.65;61.49;96145.13;5106308;28;20028;-77
2022/01/26 09:15:33;;;;;;;22.45;9.05;;;;;;;-2.65;60.82;96144.25;5105701;28;20406;-78
2022/01/26 09:18:01;;;;;;;20.02;9.35;;;;;;;-2.68;61.34;96147.91;5106413;28;20034;-77
2022/01/26 09:20:27;;;;;;;21.42;10.10;;;;;;;-2.59;61.51;96148.34;5088940;28;20428;-78
2022/01/26 09:22:53;;;;;;;21.08;10.40;;;;;;;-2.62;61.13;96144.97;5107384;28;20027;-80
2022/01/26 09:25:18;;;;;;;18.00;9.55;;;;;;;-2.57;61.70;96142.09;5088409;28;20028;-78
2022/01/26 09:27:44;;;;;;;27.55;10.10;;;;;;;-2.54;61.80;96148.97;5072433;28;20031;-79
2022/01/26 09:30:10;;;;;;;19.98;10.13;;;;;;;-2.54;61.22;96148.97;5105871;28;20024;-78
2022/01/26 09:32:36;;;;;;;18.33;9.77;;;;;;;-2.64;61.56;96149.44;5105818;28;20059;-78
2022/01/26 09:35:03;;;;;;;16.80;9.63;;;;;;;-2.65;61.76;96141.63;5089391;28;20038;-77
2022/01/26 09:37:29;;;;;;;18.17;9.43;;;;;;;-2.54;61.42;96139.31;5071760;28;20032;-75
2022/01/26 09:39:55;;;;;;;20.40;9.85;;;;;;;-2.45;61.75;96139.78;5107307;28;20076;-78
2022/01/26 09:42:20;;;;;;;20.50;9.75;;;;;;;-2.43;62.02;96138.75;5105457;28;20023;-78
2022/01/26 09:44:46;;;;;;;20.58;10.25;;;;;;;-2.34;62.40;96139.22;5105912;28;20081;-77
2022/01/26 09:47:11;;;;;;;18.45;10.05;;;;;;;-2.20;61.79;96125.34;5088114;28;20059;-78
2022/01/26 09:49:38;;;;;;;18.70;9.75;;;;;;;-2.20;61.93;96120.94;5106268;28;20036;-78
2022/01/26 09:52:13;;;;;;;19.02;9.77;;;;;;;-2.21;62.34;96119.25;5088685;28;20027;-78
2022/01/26 09:54:42;;;;;;;20.58;10.52;;;;;;;-2.26;62.76;96127.34;5106932;28;20028;-78
2022/01/26 09:57:07;;;;;;;17.15;9.73;;;;;;;-2.22;62.81;96129.84;5106882;28;20027;-79
2022/01/26 09:59:33;;;;;;;21.25;10.15;;;;;;;-2.16;62.59;96124.28;5088089;28;20172;-77
2022/01/26 10:01:59;;;;;;;18.17;9.80;;;;;;;-2.09;62.22;96124.75;5105362;28;20028;-76
2022/01/26 10:04:29;;;;;;;19.17;10.40;;;;;;;-2.06;62.56;96122.00;5087932;28;20042;-78
2022/01/26 10:07:01;;;;;;;17.63;9.73;;;;;;;-1.99;62.18;96123.34;5105853;28;20028;-77
2022/01/26 10:17:41;;;;;;;17.15;8.98;;;;;;;-2.08;63.06;96119.44;5105099;28;20043;-78
2022/01/26 10:20:09;;;;;;;19.05;9.57;;;;;;;-2.12;63.22;96118.75;5088527;28;20114;-75
2022/01/26 10:22:35;;;;;;;20.98;9.80;;;;;;;-1.96;63.23;96115.31;5088793;28;20067;-78
2022/01/26 10:25:09;;;;;;;18.33;9.88;;;;;;;-1.91;63.30;96115.91;5087706;28;20428;-78
2022/01/26 10:27:39;;;;;;;24.55;10.57;;;;;;;-1.89;63.63;96110.56;5106495;28;20031;-78
2022/01/26 10:30:06;;;;;;;21.95;10.35;;;;;;;-1.85;63.70;96108.63;5104143;28;20085;-76
2022/01/26 10:32:35;;;;;;;19.58;10.30;;;;;;;-1.88;64.27;96099.09;5088610;28;20450;-77
2022/01/26 10:35:01;;;;;;;24.25;9.75;;;;;;;-1.82;63.56;96103.19;5087614;28;20030;-77
2022/01/26 10:37:27;;;;;;;16.70;9.88;;;;;;;-1.75;63.74;96107.19;5106357;28;20035;-78
2022/01/26 10:39:55;;;;;;;22.60;10.15;;;;;;;-1.77;64.06;96102.00;5104884;28;20073;-77
2022/01/26 10:42:23;;;;;;;18.67;10.15;;;;;;;-1.70;64.40;96099.88;5105817;28;20093;-77
2022/01/26 10:44:59;;;;;;;20.92;9.95;;;;;;;-1.66;64.16;96083.00;5106609;28;20024;-77
2022/01/26 10:47:35;;;;;;;16.30;8.85;;;;;;;-1.63;64.09;96088.09;5104550;28;20044;-77
2022/01/26 10:50:19;;;;;;;16.67;9.10;;;;;;;-1.61;64.68;96088.00;5092393;28;20028;-77
2022/01/26 10:52:53;;;;;;;23.33;9.73;;;;;;;-1.68;65.11;96095.41;5097852;28;20019;-77
2022/01/26 10:55:19;;;;;;;19.05;9.02;;;;;;;-1.70;65.16;96092.00;5109776;28;20367;-78
2022/01/26 10:57:44;;;;;;;18.52;9.07;;;;;;;-1.69;65.35;96080.53;5112056;28;20138;-77
2022/01/26 11:00:10;;;;;;;19.10;9.35;;;;;;;-1.64;65.64;96085.53;5111087;28;20024;-77
2022/01/26 11:02:36;;;;;;;14.90;7.88;;;;;;;-1.66;65.57;96083.00;5109157;28;20039;-78
2022/01/26 11:05:01;;;;;;;20.63;8.20;;;;;;;-1.67;65.86;96076.03;5091028;28;20023;-78
2022/01/26 11:07:32;;;;;;;15.90;8.93;;;;;;;-1.59;66.10;96074.75;5108860;28;20402;-77
2022/01/26 11:10:01;;;;;;;15.90;7.63;;;;;;;-1.65;65.71;96070.69;5091645;28;20027;-77
2022/01/26 11:12:27;;;;;;;14.18;7.93;;;;;;;-1.59;66.11;96072.97;5091116;28;20035;-76
2022/01/26 11:15:17;;;;;;;15.88;8.07;;;;;;;-1.58;66.05;96066.78;5108842;28;20019;-77
2022/01/26 11:17:44;;;;;;;16.48;8.63;;;;;;;-1.56;65.89;96074.59;5107452;28;20047;-77
2022/01/26 11:20:31;;;;;;;16.25;9.23;;;;;;;-1.52;66.28;96068.22;5091993;28;20092;-78
2022/01/26 11:22:58;;;;;;;16.70;9.57;;;;;;;-1.52;66.02;96068.22;5092478;28;20035;-77
2022/01/26 11:25:25;;;;;;;13.77;7.85;;;;;;;-1.48;66.34;96064.47;5090751;28;20469;-78
2022/01/26 11:27:51;;;;;;;13.50;8.25;;;;;;;-1.47;66.34;96060.94;5108363;28;20539;-77
2022/01/26 11:30:28;;;;;;;14.70;8.70;;;;;;;-1.26;65.72;96060.63;5090629;28;20023;-77
2022/01/26 11:32:58;;;;;;;13.95;8.57;;;;;;;-1.17;65.24;96049.56;5108645;28;20072;-78
2022/01/26 11:35:27;;;;;;;13.10;7.53;;;;;;;-1.08;65.51;96053.44;5108809;28;20039;-78
2022/01/26 11:38:17;;;;;;;13.23;7.70;;;;;;;-1.26;65.58;96058.00;5108167;28;20032;-78
2022/01/26 11:46:32;;;;;;;15.57;8.32;;;;;;;-1.14;65.39;96041.50;5108220;28;20112;-78
2022/01/26 11:49:08;;;;;;;17.80;8.60;;;;;;;-1.09;65.80;96043.00;5073661;28;20138;-78
2022/01/26 11:51:46;;;;;;;12.05;7.57;;;;;;;-1.04;66.00;96041.81;5106889;28;20027;-77
2022/01/26 11:54:18;;;;;;;15.75;8.65;;;;;;;-1.01;66.36;96036.34;5107679;28;20482;-79
2022/01/26 11:56:54;;;;;;;15.10;8.50;;;;;;;-0.99;65.91;96041.53;5108421;28;20119;-77
2022/01/26 11:59:21;;;;;;;12.90;8.38;;;;;;;-1.01;66.21;96046.91;5090574;28;20031;-77
2022/01/26 12:01:55;;;;;;;15.10;9.32;;;;;;;-1.10;66.50;96049.22;5108430;28;20035;-78
2022/01/26 12:04:20;;;;;;;16.67;9.18;;;;;;;-1.14;66.29;96038.88;5105900;28;20032;-77
2022/01/26 12:06:56;;;;;;;17.20;9.32;;;;;;;-1.24;66.89;96050.84;5090407;28;20168;-76
2022/01/26 12:09:21;;;;;;;15.00;9.23;;;;;;;-1.28;67.06;96044.94;5074245;28;20274;-77
2022/01/26 12:11:51;;;;;;;16.80;9.55;;;;;;;-1.34;67.46;96044.44;5107823;28;20015;-76
2022/01/26 12:14:20;;;;;;;16.88;9.25;;;;;;;-1.43;67.84;96053.69;5072884;28;20108;-77
2022/01/26 12:16:47;;;;;;;15.13;8.93;;;;;;;-1.31;67.23;96036.34;5090831;28;20032;-78
2022/01/26 12:38:14;;;;;;;14.50;8.98;;;;;;;-1.65;68.36;96025.97;5091332;28;20456;-76
2022/01/26 12:43:37;;;;;;;17.00;9.20;;;;;;;-1.62;68.26;96033.69;5092184;28;20034;-77
2022/01/26 12:46:05;;;;;;;18.35;8.70;;;;;;;-1.61;68.04;96035.38;5108016;28;20046;-77
2022/01/26 12:48:34;;;;;;;18.70;9.15;;;;;;;-1.67;68.51;96033.09;5071606;28;20381;-82
2022/01/26 12:51:00;;;;;;;15.30;9.00;;;;;;;-1.70;68.60;96028.88;5074148;28;20069;-78
2022/01/26 12:53:26;;;;;;;15.85;8.85;;;;;;;-1.65;68.54;96036.50;5105831;28;20073;-80
2022/01/26 12:55:59;;;;;;;15.10;9.18;;;;;;;-1.61;68.40;96035.38;5072789;28;20039;-77
2022/01/26 12:58:32;;;;;;;15.32;9.27;;;;;;;-1.63;68.58;96035.47;5090041;28;20033;-77
2022/01/26 13:01:08;;;;;;;15.20;8.43;;;;;;;-1.62;68.26;96025.81;5106325;28;20035;-77
2022/01/26 13:03:38;;;;;;;17.90;9.30;;;;;;;-1.56;68.50;96028.09;5106636;28;20059;-77
2022/01/26 13:06:24;;;;;;;18.35;9.88;;;;;;;-1.58;68.30;96016.78;5088970;28;20028;-80
2022/01/26 13:08:50;;;;;;;21.00;10.32;;;;;;;-1.57;68.46;96015.88;5106379;28;20035;-78
2022/01/26 13:11:35;;;;;;;16.92;9.52;;;;;;;-1.75;69.36;96021.25;5089767;28;20028;-79
2022/01/26 13:14:24;;;;;;;14.43;9.43;;;;;;;-1.87;69.59;96014.06;5089746;28;20023;-78
2022/01/26 13:25:00;;;;;;;18.73;9.93;;;;;;;-1.82;69.63;96019.88;5106654;28;20375;-78
2022/01/26 13:30:34;;;;;;;14.98;8.93;;;;;;;-1.80;69.77;96011.91;5106644;28;20099;-78
2022/01/26 13:36:27;;;;;;;15.05;8.00;;;;;;;-1.60;69.26;96004.66;5090473;28;20042;-80
2022/01/26 13:38:39;;;;;;;14.05;7.97;;;;;;;-1.57;69.21;95991.34;5084729;28;20032;-80
2022/01/26 13:57:14;;;;;;;13.57;7.88;;;;;;;-1.62;69.68;96000.34;5095356;27;20514;-79
2022/01/26 13:59:51;;;;;;;12.30;7.25;;;;;;;-1.62;70.07;96010.88;5082902;28;20032;-79
2022/01/26 14:02:16;;;;;;;13.73;8.18;;;;;;;-1.65;70.42;96005.78;5095139;28;20019;-77
2022/01/26 14:04:42;;;;;;;14.07;8.30;;;;;;;-1.62;70.08;96010.03;5081213;28;20407;-78
2022/01/26 14:07:07;;;;;;;12.82;7.72;;;;;;;-1.57;69.90;96018.50;5098436;28;20363;-78
2022/01/26 14:09:33;;;;;;;17.75;10.25;;;;;;;-1.53;69.95;96014.75;5092600;28;20501;-81